sensor_id;sensor_type;location;lat;lon;timestamp;temperature;humidity
6518;DHT22;3292;48.944;9.240;2022-12-18T00:02:04;-8.60;99.90
6518;DHT22;3292;48.944;9.240;2022-12-18T00:04:31;-8.70;99.90
6518;DHT22;3292;48.944;9.240;2022-12-18T00:06:58;-8.70;99.90
6518;DHT22;3292;48.944;9.240;2022-12-18T00:09:25;-8.60;99.90
6518;DHT22;3292;48.944;9.240;2022-12-18T00:11:51;-8.70;99.90
6518;DHT22;3292;48.944;9.240;2022-12-18T00:14:18;-8.60;99.90
6518;DHT22;3292;48.944;9.240;2022-12-18T00:16:48;-8.70;99.90
6518;DHT22;3292;48.944;9.240;2022-12-18T00:19:15;-8.70;99.90
6518;DHT22;3292;48.944;9.240;2022-12-18T00:21:42;-8.80;99.90
6518;DHT22;3292;48.944;9.240;2022-12-18T00:24:10;-8.80;99.90
6518;DHT22;3292;48.944;9.240;2022-12-18T00:26:38;-8.80;99.90
6518;DHT22;3292;48.944;9.240;2022-12-18T00:29:07;-8.80;99.90
6518;DHT22;3292;48.944;9.240;2022-12-18T00:31:35;-8.90;99.90
6518;DHT22;3292;48.944;9.240;2022-12-18T00:34:03;-9.00;99.90
6518;DHT22;3292;48.944;9.240;2022-12-18T00:36:32;-8.90;99.90
6518;DHT22;3292;48.944;9.240;2022-12-18T00:39:02;-8.90;99.90
6518;DHT22;3292;48.944;9.240;2022-12-18T00:41:29;-8.90;99.90
6518;DHT22;3292;48.944;9.240;2022-12-18T00:44:15;-8.90;99.90
6518;DHT22;3292;48.944;9.240;2022-12-18T00:46:42;-8.90;99.90
6518;DHT22;3292;48.944;9.240;2022-12-18T00:49:11;-8.90;99.90
6518;DHT22;3292;48.944;9.240;2022-12-18T00:51:41;-8.80;99.90
6518;DHT22;3292;48.944;9.240;2022-12-18T00:54:07;-8.80;99.90
6518;DHT22;3292;48.944;9.240;2022-12-18T00:56:35;-8.80;99.90
6518;DHT22;3292;48.944;9.240;2022-12-18T00:59:02;-8.80;99.90
6518;DHT22;3292;48.944;9.240;2022-12-18T01:01:29;-8.80;99.90
6518;DHT22;3292;48.944;9.240;2022-12-18T01:03:58;-8.80;99.90
6518;DHT22;3292;48.944;9.240;2022-12-18T01:06:27;-8.80;99.90
6518;DHT22;3292;48.944;9.240;2022-12-18T01:08:54;-8.80;99.90
6518;DHT22;3292;48.944;9.240;2022-12-18T01:11:21;-8.80;99.90
6518;DHT22;3292;48.944;9.240;2022-12-18T01:13:48;-8.80;99.90
6518;DHT22;3292;48.944;9.240;2022-12-18T01:16:17;-8.90;99.90
6518;DHT22;3292;48.944;9.240;2022-12-18T01:18:45;-8.80;99.90
6518;DHT22;3292;48.944;9.240;2022-12-18T01:24:35;-8.80;99.90
6518;DHT22;3292;48.944;9.240;2022-12-18T01:27:02;-8.80;99.90
6518;DHT22;3292;48.944;9.240;2022-12-18T01:29:29;-8.80;99.90
6518;DHT22;3292;48.944;9.240;2022-12-18T01:31:56;-8.80;99.90
6518;DHT22;3292;48.944;9.240;2022-12-18T01:34:28;-8.80;99.90
6518;DHT22;3292;48.944;9.240;2022-12-18T01:36:56;-8.90;99.90
6518;DHT22;3292;48.944;9.240;2022-12-18T01:39:23;-9.00;99.90
6518;DHT22;3292;48.944;9.240;2022-12-18T01:41:51;-8.90;99.90
6518;DHT22;3292;48.944;9.240;2022-12-18T01:44:56;-8.90;99.90
6518;DHT22;3292;48.944;9.240;2022-12-18T01:47:26;-8.90;99.90
6518;DHT22;3292;48.944;9.240;2022-12-18T01:49:55;-8.90;99.90
6518;DHT22;3292;48.944;9.240;2022-12-18T01:52:25;-8.90;99.90
6518;DHT22;3292;48.944;9.240;2022-12-18T01:54:57;-8.90;99.90
6518;DHT22;3292;48.944;9.240;2022-12-18T01:57:28;-9.00;99.90
6518;DHT22;3292;48.944;9.240;2022-12-18T02:00:00;-9.00;99.90
6518;DHT22;3292;48.944;9.240;2022-12-18T02:02:30;-9.00;99.90
6518;DHT22;3292;48.944;9.240;2022-12-18T02:05:07;-9.00;99.90
6518;DHT22;3292;48.944;9.240;2022-12-18T02:07:43;-9.00;99.90
6518;DHT22;3292;48.944;9.240;2022-12-18T02:10:30;-9.00;99.90
6518;DHT22;3292;48.944;9.240;2022-12-18T02:13:13;-9.10;99.90
6518;DHT22;3292;48.944;9.240;2022-12-18T02:15:50;-9.10;99.90
6518;DHT22;3292;48.944;9.240;2022-12-18T02:18:28;-9.10;99.90
6518;DHT22;3292;48.944;9.240;2022-12-18T02:21:07;-9.20;99.90
6518;DHT22;3292;48.944;9.240;2022-12-18T02:23:47;-9.20;99.90
6518;DHT22;3292;48.944;9.240;2022-12-18T02:26:28;-9.20;99.90
6518;DHT22;3292;48.944;9.240;2022-12-18T02:29:13;-9.10;99.90
6518;DHT22;3292;48.944;9.240;2022-12-18T02:31:45;-9.00;99.90
6518;DHT22;3292;48.944;9.240;2022-12-18T02:34:13;-9.10;99.90
6518;DHT22;3292;48.944;9.240;2022-12-18T02:36:42;-9.20;99.90
6518;DHT22;3292;48.944;9.240;2022-12-18T02:39:12;-9.20;99.90
6518;DHT22;3292;48.944;9.240;2022-12-18T02:41:42;-9.10;99.90
6518;DHT22;3292;48.944;9.240;2022-12-18T02:44:11;-9.10;99.90
6518;DHT22;3292;48.944;9.240;2022-12-18T02:46:41;-9.00;99.90
6518;DHT22;3292;48.944;9.240;2022-12-18T02:49:18;-9.00;99.90
6518;DHT22;3292;48.944;9.240;2022-12-18T02:51:51;-9.00;99.90
6518;DHT22;3292;48.944;9.240;2022-12-18T02:54:51;-9.00;99.90
6518;DHT22;3292;48.944;9.240;2022-12-18T02:57:31;-9.00;99.90
6518;DHT22;3292;48.944;9.240;2022-12-18T03:00:04;-8.90;99.90
6518;DHT22;3292;48.944;9.240;2022-12-18T03:02:37;-8.90;99.90
6518;DHT22;3292;48.944;9.240;2022-12-18T03:05:10;-8.90;99.90
6518;DHT22;3292;48.944;9.240;2022-12-18T03:07:42;-8.90;99.90
6518;DHT22;3292;48.944;9.240;2022-12-18T03:10:13;-8.90;99.90
6518;DHT22;3292;48.944;9.240;2022-12-18T03:12:49;-8.90;99.90
6518;DHT22;3292;48.944;9.240;2022-12-18T03:15:21;-9.00;99.90
6518;DHT22;3292;48.944;9.240;2022-12-18T03:17:55;-9.10;99.90
6518;DHT22;3292;48.944;9.240;2022-12-18T03:20:25;-9.10;99.90
6518;DHT22;3292;48.944;9.240;2022-12-18T03:22:57;-9.00;99.90
6518;DHT22;3292;48.944;9.240;2022-12-18T03:25:27;-9.00;99.90
6518;DHT22;3292;48.944;9.240;2022-12-18T03:27:57;-9.00;99.90
6518;DHT22;3292;48.944;9.240;2022-12-18T03:30:26;-9.00;99.90
6518;DHT22;3292;48.944;9.240;2022-12-18T03:33:01;-9.00;99.90
6518;DHT22;3292;48.944;9.240;2022-12-18T03:35:33;-9.00;99.90
6518;DHT22;3292;48.944;9.240;2022-12-18T03:38:01;-9.00;99.90
6518;DHT22;3292;48.944;9.240;2022-12-18T03:40:34;-9.00;99.90
6518;DHT22;3292;48.944;9.240;2022-12-18T03:43:10;-9.00;99.90
6518;DHT22;3292;48.944;9.240;2022-12-18T03:45:44;-9.00;99.90
6518;DHT22;3292;48.944;9.240;2022-12-18T03:48:21;-9.10;99.90
6518;DHT22;3292;48.944;9.240;2022-12-18T03:50:56;-9.10;99.90
6518;DHT22;3292;48.944;9.240;2022-12-18T03:53:32;-9.30;99.90
6518;DHT22;3292;48.944;9.240;2022-12-18T03:56:00;-9.40;99.90
6518;DHT22;3292;48.944;9.240;2022-12-18T03:58:31;-9.40;99.90
6518;DHT22;3292;48.944;9.240;2022-12-18T04:01:02;-9.50;99.90
6518;DHT22;3292;48.944;9.240;2022-12-18T04:03:39;-9.60;99.90
6518;DHT22;3292;48.944;9.240;2022-12-18T04:06:07;-9.60;99.90
6518;DHT22;3292;48.944;9.240;2022-12-18T04:08:35;-9.50;99.90
6518;DHT22;3292;48.944;9.240;2022-12-18T04:11:02;-9.50;99.90
6518;DHT22;3292;48.944;9.240;2022-12-18T04:13:34;-9.50;99.90
6518;DHT22;3292;48.944;9.240;2022-12-18T04:16:01;-9.50;99.90
6518;DHT22;3292;48.944;9.240;2022-12-18T04:18:28;-9.60;99.90
6518;DHT22;3292;48.944;9.240;2022-12-18T04:20:55;-9.60;99.90
6518;DHT22;3292;48.944;9.240;2022-12-18T04:23:21;-9.60;99.90
6518;DHT22;3292;48.944;9.240;2022-12-18T04:25:48;-9.60;99.90
6518;DHT22;3292;48.944;9.240;2022-12-18T04:28:15;-9.60;99.90
6518;DHT22;3292;48.944;9.240;2022-12-18T04:30:43;-9.60;99.90
6518;DHT22;3292;48.944;9.240;2022-12-18T04:33:18;-9.60;99.90
6518;DHT22;3292;48.944;9.240;2022-12-18T04:35:44;-9.60;99.90
6518;DHT22;3292;48.944;9.240;2022-12-18T04:38:11;-9.70;99.90
6518;DHT22;3292;48.944;9.240;2022-12-18T04:40:38;-9.70;99.90
6518;DHT22;3292;48.944;9.240;2022-12-18T04:43:05;-9.80;99.90
6518;DHT22;3292;48.944;9.240;2022-12-18T04:45:32;-9.80;99.90
6518;DHT22;3292;48.944;9.240;2022-12-18T04:48:02;-9.70;99.90
6518;DHT22;3292;48.944;9.240;2022-12-18T04:50:29;-9.60;99.90
6518;DHT22;3292;48.944;9.240;2022-12-18T04:52:59;-9.60;99.90
6518;DHT22;3292;48.944;9.240;2022-12-18T04:55:28;-9.50;99.90
6518;DHT22;3292;48.944;9.240;2022-12-18T04:57:55;-9.40;99.90
6518;DHT22;3292;48.944;9.240;2022-12-18T05:00:22;-9.40;99.90
6518;DHT22;3292;48.944;9.240;2022-12-18T05:02:49;-9.40;99.90
6518;DHT22;3292;48.944;9.240;2022-12-18T05:05:17;-9.50;99.90
6518;DHT22;3292;48.944;9.240;2022-12-18T05:07:44;-9.40;99.90
6518;DHT22;3292;48.944;9.240;2022-12-18T05:10:11;-9.40;99.90
6518;DHT22;3292;48.944;9.240;2022-12-18T05:12:38;-9.30;99.90
6518;DHT22;3292;48.944;9.240;2022-12-18T05:15:23;-9.40;99.90
6518;DHT22;3292;48.944;9.240;2022-12-18T05:17:50;-9.40;99.90
6518;DHT22;3292;48.944;9.240;2022-12-18T05:20:18;-9.30;99.90
6518;DHT22;3292;48.944;9.240;2022-12-18T05:22:45;-9.20;99.90
6518;DHT22;3292;48.944;9.240;2022-12-18T05:25:12;-9.20;99.90
6518;DHT22;3292;48.944;9.240;2022-12-18T05:27:39;-9.10;99.90
6518;DHT22;3292;48.944;9.240;2022-12-18T05:30:07;-9.10;99.90
6518;DHT22;3292;48.944;9.240;2022-12-18T05:32:34;-9.10;99.90
6518;DHT22;3292;48.944;9.240;2022-12-18T05:35:01;-9.00;99.90
6518;DHT22;3292;48.944;9.240;2022-12-18T05:37:29;-8.90;99.90
6518;DHT22;3292;48.944;9.240;2022-12-18T05:39:55;-8.90;99.90
6518;DHT22;3292;48.944;9.240;2022-12-18T05:42:22;-8.90;99.90
6518;DHT22;3292;48.944;9.240;2022-12-18T05:44:49;-8.90;99.90
6518;DHT22;3292;48.944;9.240;2022-12-18T05:47:16;-8.90;99.90
6518;DHT22;3292;48.944;9.240;2022-12-18T05:49:43;-8.90;99.90
6518;DHT22;3292;48.944;9.240;2022-12-18T05:52:10;-8.90;99.90
6518;DHT22;3292;48.944;9.240;2022-12-18T05:54:38;-8.90;99.90
6518;DHT22;3292;48.944;9.240;2022-12-18T05:57:05;-8.90;99.90
6518;DHT22;3292;48.944;9.240;2022-12-18T05:59:32;-8.90;99.90
6518;DHT22;3292;48.944;9.240;2022-12-18T06:01:58;-8.90;99.90
6518;DHT22;3292;48.944;9.240;2022-12-18T06:04:26;-8.90;99.90
6518;DHT22;3292;48.944;9.240;2022-12-18T06:06:56;-9.10;99.90
6518;DHT22;3292;48.944;9.240;2022-12-18T06:09:23;-9.10;99.90
6518;DHT22;3292;48.944;9.240;2022-12-18T06:11:52;-9.20;99.90
6518;DHT22;3292;48.944;9.240;2022-12-18T06:14:19;-9.20;99.90
6518;DHT22;3292;48.944;9.240;2022-12-18T06:16:46;-9.20;99.90
6518;DHT22;3292;48.944;9.240;2022-12-18T06:19:14;-9.20;99.90
6518;DHT22;3292;48.944;9.240;2022-12-18T06:21:41;-9.20;99.90
6518;DHT22;3292;48.944;9.240;2022-12-18T06:24:08;-9.30;99.90
6518;DHT22;3292;48.944;9.240;2022-12-18T06:26:37;-9.30;99.90
6518;DHT22;3292;48.944;9.240;2022-12-18T06:29:05;-9.30;99.90
6518;DHT22;3292;48.944;9.240;2022-12-18T06:31:32;-9.30;99.90
6518;DHT22;3292;48.944;9.240;2022-12-18T06:34:02;-9.30;99.90
6518;DHT22;3292;48.944;9.240;2022-12-18T06:36:29;-9.30;99.90
6518;DHT22;3292;48.944;9.240;2022-12-18T06:38:56;-9.30;99.90
6518;DHT22;3292;48.944;9.240;2022-12-18T06:41:23;-9.20;99.90
6518;DHT22;3292;48.944;9.240;2022-12-18T06:43:50;-9.20;99.90
6518;DHT22;3292;48.944;9.240;2022-12-18T06:46:18;-9.30;99.90
6518;DHT22;3292;48.944;9.240;2022-12-18T06:48:47;-9.30;99.90
6518;DHT22;3292;48.944;9.240;2022-12-18T06:51:17;-9.30;99.90
6518;DHT22;3292;48.944;9.240;2022-12-18T06:53:43;-9.30;99.90
6518;DHT22;3292;48.944;9.240;2022-12-18T06:56:10;-9.30;99.90
6518;DHT22;3292;48.944;9.240;2022-12-18T06:58:37;-9.20;99.90
6518;DHT22;3292;48.944;9.240;2022-12-18T07:01:06;-9.20;99.90
6518;DHT22;3292;48.944;9.240;2022-12-18T07:03:35;-9.20;99.90
6518;DHT22;3292;48.944;9.240;2022-12-18T07:06:02;-9.30;99.90
6518;DHT22;3292;48.944;9.240;2022-12-18T07:08:29;-9.30;99.90
6518;DHT22;3292;48.944;9.240;2022-12-18T07:10:56;-9.30;99.90
6518;DHT22;3292;48.944;9.240;2022-12-18T07:13:23;-9.30;99.90
6518;DHT22;3292;48.944;9.240;2022-12-18T07:15:50;-9.30;99.90
6518;DHT22;3292;48.944;9.240;2022-12-18T07:18:17;-9.30;99.90
6518;DHT22;3292;48.944;9.240;2022-12-18T07:20:46;-9.30;99.90
6518;DHT22;3292;48.944;9.240;2022-12-18T07:23:12;-9.30;99.90
6518;DHT22;3292;48.944;9.240;2022-12-18T07:25:39;-9.30;99.90
6518;DHT22;3292;48.944;9.240;2022-12-18T07:28:06;-9.30;99.90
6518;DHT22;3292;48.944;9.240;2022-12-18T07:30:33;-9.30;99.90
6518;DHT22;3292;48.944;9.240;2022-12-18T07:33:00;-9.20;99.90
6518;DHT22;3292;48.944;9.240;2022-12-18T07:35:26;-9.20;99.90
6518;DHT22;3292;48.944;9.240;2022-12-18T07:37:55;-9.20;99.90
6518;DHT22;3292;48.944;9.240;2022-12-18T07:40:21;-9.20;99.90
6518;DHT22;3292;48.944;9.240;2022-12-18T07:42:48;-9.20;99.90
6518;DHT22;3292;48.944;9.240;2022-12-18T07:45:15;-9.10;99.90
6518;DHT22;3292;48.944;9.240;2022-12-18T07:47:42;-9.00;99.90
6518;DHT22;3292;48.944;9.240;2022-12-18T07:50:09;-9.00;99.90
6518;DHT22;3292;48.944;9.240;2022-12-18T07:52:36;-8.90;99.90
6518;DHT22;3292;48.944;9.240;2022-12-18T07:55:05;-8.90;99.90
6518;DHT22;3292;48.944;9.240;2022-12-18T07:57:31;-8.90;99.90
6518;DHT22;3292;48.944;9.240;2022-12-18T07:59:58;-8.90;99.90
6518;DHT22;3292;48.944;9.240;2022-12-18T08:02:25;-8.90;99.90
6518;DHT22;3292;48.944;9.240;2022-12-18T08:04:52;-8.90;99.90
6518;DHT22;3292;48.944;9.240;2022-12-18T08:07:19;-8.80;99.90
6518;DHT22;3292;48.944;9.240;2022-12-18T08:09:46;-8.80;99.90
6518;DHT22;3292;48.944;9.240;2022-12-18T08:12:14;-8.80;99.90
6518;DHT22;3292;48.944;9.240;2022-12-18T08:14:41;-8.80;99.90
6518;DHT22;3292;48.944;9.240;2022-12-18T08:17:07;-8.80;99.90
6518;DHT22;3292;48.944;9.240;2022-12-18T08:19:34;-8.80;99.90
6518;DHT22;3292;48.944;9.240;2022-12-18T08:22:01;-8.80;99.90
6518;DHT22;3292;48.944;9.240;2022-12-18T08:24:28;-8.70;99.90
6518;DHT22;3292;48.944;9.240;2022-12-18T08:26:55;-8.70;99.90
6518;DHT22;3292;48.944;9.240;2022-12-18T08:29:24;-8.70;99.90
6518;DHT22;3292;48.944;9.240;2022-12-18T08:31:50;-8.60;99.90
6518;DHT22;3292;48.944;9.240;2022-12-18T08:34:17;-8.60;99.90
6518;DHT22;3292;48.944;9.240;2022-12-18T08:36:44;-8.50;99.90
6518;DHT22;3292;48.944;9.240;2022-12-18T08:39:11;-8.50;99.90
6518;DHT22;3292;48.944;9.240;2022-12-18T08:41:37;-8.40;99.90
6518;DHT22;3292;48.944;9.240;2022-12-18T08:44:04;-8.30;99.90
6518;DHT22;3292;48.944;9.240;2022-12-18T08:46:50;-8.30;99.90
6518;DHT22;3292;48.944;9.240;2022-12-18T08:49:17;-8.20;99.90
6518;DHT22;3292;48.944;9.240;2022-12-18T08:51:44;-8.20;99.90
6518;DHT22;3292;48.944;9.240;2022-12-18T08:54:12;-8.20;99.90
6518;DHT22;3292;48.944;9.240;2022-12-18T08:56:39;-8.10;99.90
6518;DHT22;3292;48.944;9.240;2022-12-18T08:59:05;-8.10;99.90
6518;DHT22;3292;48.944;9.240;2022-12-18T09:01:32;-8.10;99.90
6518;DHT22;3292;48.944;9.240;2022-12-18T09:04:00;-8.10;99.90
6518;DHT22;3292;48.944;9.240;2022-12-18T09:06:27;-7.90;99.90
6518;DHT22;3292;48.944;9.240;2022-12-18T09:08:54;-7.90;99.90
6518;DHT22;3292;48.944;9.240;2022-12-18T09:11:22;-7.90;99.90
6518;DHT22;3292;48.944;9.240;2022-12-18T09:13:50;-7.90;99.90
6518;DHT22;3292;48.944;9.240;2022-12-18T09:16:17;-7.80;99.90
6518;DHT22;3292;48.944;9.240;2022-12-18T09:18:45;-7.80;99.90
6518;DHT22;3292;48.944;9.240;2022-12-18T09:21:14;-7.80;99.90
6518;DHT22;3292;48.944;9.240;2022-12-18T09:23:41;-7.70;99.90
6518;DHT22;3292;48.944;9.240;2022-12-18T09:26:08;-7.60;99.90
6518;DHT22;3292;48.944;9.240;2022-12-18T09:28:35;-7.60;99.90
6518;DHT22;3292;48.944;9.240;2022-12-18T09:31:05;-7.60;99.90
6518;DHT22;3292;48.944;9.240;2022-12-18T09:33:33;-7.50;99.90
6518;DHT22;3292;48.944;9.240;2022-12-18T09:36:01;-7.50;99.90
6518;DHT22;3292;48.944;9.240;2022-12-18T09:38:30;-7.50;99.90
6518;DHT22;3292;48.944;9.240;2022-12-18T09:41:00;-7.40;99.90
6518;DHT22;3292;48.944;9.240;2022-12-18T09:43:33;-7.40;99.90
6518;DHT22;3292;48.944;9.240;2022-12-18T09:46:03;-7.30;99.90
6518;DHT22;3292;48.944;9.240;2022-12-18T09:48:35;-7.30;99.90
6518;DHT22;3292;48.944;9.240;2022-12-18T09:51:05;-7.20;99.90
6518;DHT22;3292;48.944;9.240;2022-12-18T09:53:38;-7.10;99.90
6518;DHT22;3292;48.944;9.240;2022-12-18T09:56:06;-7.00;99.90
6518;DHT22;3292;48.944;9.240;2022-12-18T09:58:41;-7.00;99.90
6518;DHT22;3292;48.944;9.240;2022-12-18T10:01:10;-6.90;99.90
6518;DHT22;3292;48.944;9.240;2022-12-18T10:03:38;-6.90;99.90
6518;DHT22;3292;48.944;9.240;2022-12-18T10:06:08;-6.90;99.90
6518;DHT22;3292;48.944;9.240;2022-12-18T10:08:43;-6.70;99.90
6518;DHT22;3292;48.944;9.240;2022-12-18T10:11:28;-6.60;99.90
6518;DHT22;3292;48.944;9.240;2022-12-18T10:14:01;-6.50;99.90
6518;DHT22;3292;48.944;9.240;2022-12-18T10:16:34;-6.40;99.90
6518;DHT22;3292;48.944;9.240;2022-12-18T10:19:15;-6.30;99.90
6518;DHT22;3292;48.944;9.240;2022-12-18T10:21:49;-6.20;99.90
6518;DHT22;3292;48.944;9.240;2022-12-18T10:24:26;-6.10;99.90
6518;DHT22;3292;48.944;9.240;2022-12-18T10:27:04;-6.00;99.90
6518;DHT22;3292;48.944;9.240;2022-12-18T10:29:35;-5.90;99.90
6518;DHT22;3292;48.944;9.240;2022-12-18T10:32:02;-5.80;99.90
6518;DHT22;3292;48.944;9.240;2022-12-18T10:34:31;-5.70;99.90
6518;DHT22;3292;48.944;9.240;2022-12-18T10:37:01;-5.60;99.90
6518;DHT22;3292;48.944;9.240;2022-12-18T10:39:34;-5.60;99.90
6518;DHT22;3292;48.944;9.240;2022-12-18T10:42:10;-5.50;99.90
6518;DHT22;3292;48.944;9.240;2022-12-18T10:44:38;-5.30;99.90
6518;DHT22;3292;48.944;9.240;2022-12-18T10:47:11;-5.10;99.90
6518;DHT22;3292;48.944;9.240;2022-12-18T10:49:46;-5.00;99.90
6518;DHT22;3292;48.944;9.240;2022-12-18T10:52:15;-4.90;99.90
6518;DHT22;3292;48.944;9.240;2022-12-18T10:54:49;-4.80;99.90
6518;DHT22;3292;48.944;9.240;2022-12-18T10:57:28;-4.80;99.90
6518;DHT22;3292;48.944;9.240;2022-12-18T10:59:57;-4.70;99.90
6518;DHT22;3292;48.944;9.240;2022-12-18T11:02:33;-4.60;99.90
6518;DHT22;3292;48.944;9.240;2022-12-18T11:05:00;-4.50;99.90
6518;DHT22;3292;48.944;9.240;2022-12-18T11:07:47;-4.40;99.90
6518;DHT22;3292;48.944;9.240;2022-12-18T11:10:18;-4.30;99.90
6518;DHT22;3292;48.944;9.240;2022-12-18T11:12:45;-4.20;99.90
6518;DHT22;3292;48.944;9.240;2022-12-18T11:15:16;-4.10;99.90
6518;DHT22;3292;48.944;9.240;2022-12-18T11:17:48;-4.00;99.90
6518;DHT22;3292;48.944;9.240;2022-12-18T11:20:24;-3.90;99.90
6518;DHT22;3292;48.944;9.240;2022-12-18T11:22:56;-3.80;99.90
6518;DHT22;3292;48.944;9.240;2022-12-18T11:25:28;-3.70;99.90
6518;DHT22;3292;48.944;9.240;2022-12-18T11:27:56;-3.60;99.90
6518;DHT22;3292;48.944;9.240;2022-12-18T11:30:26;-3.60;99.90
6518;DHT22;3292;48.944;9.240;2022-12-18T11:32:57;-3.50;99.90
6518;DHT22;3292;48.944;9.240;2022-12-18T11:35:44;-3.30;99.90
6518;DHT22;3292;48.944;9.240;2022-12-18T11:38:19;-3.00;99.90
6518;DHT22;3292;48.944;9.240;2022-12-18T11:40:53;-2.90;99.90
6518;DHT22;3292;48.944;9.240;2022-12-18T11:43:26;-2.90;99.90
6518;DHT22;3292;48.944;9.240;2022-12-18T11:46:00;-2.80;99.90
6518;DHT22;3292;48.944;9.240;2022-12-18T11:48:32;-2.90;99.90
6518;DHT22;3292;48.944;9.240;2022-12-18T11:51:01;-2.90;99.90
6518;DHT22;3292;48.944;9.240;2022-12-18T11:53:30;-2.90;99.90
6518;DHT22;3292;48.944;9.240;2022-12-18T11:56:05;-2.90;99.90
6518;DHT22;3292;48.944;9.240;2022-12-18T11:58:45;-2.70;99.90
6518;DHT22;3292;48.944;9.240;2022-12-18T12:01:19;-2.70;99.90
6518;DHT22;3292;48.944;9.240;2022-12-18T12:06:48;-2.60;99.90
6518;DHT22;3292;48.944;9.240;2022-12-18T12:09:23;-2.60;99.90
6518;DHT22;3292;48.944;9.240;2022-12-18T12:12:00;-2.50;99.90
6518;DHT22;3292;48.944;9.240;2022-12-18T12:14:43;-2.50;99.90
6518;DHT22;3292;48.944;9.240;2022-12-18T12:17:16;-2.60;99.90
6518;DHT22;3292;48.944;9.240;2022-12-18T12:19:50;-2.60;99.90
6518;DHT22;3292;48.944;9.240;2022-12-18T12:22:28;-2.50;99.90
6518;DHT22;3292;48.944;9.240;2022-12-18T12:25:08;-2.50;99.90
6518;DHT22;3292;48.944;9.240;2022-12-18T12:27:47;-2.30;99.90
6518;DHT22;3292;48.944;9.240;2022-12-18T12:30:20;-2.30;99.90
6518;DHT22;3292;48.944;9.240;2022-12-18T12:33:00;-2.20;99.90
6518;DHT22;3292;48.944;9.240;2022-12-18T12:35:36;-2.20;99.90
6518;DHT22;3292;48.944;9.240;2022-12-18T12:38:09;-2.10;99.90
6518;DHT22;3292;48.944;9.240;2022-12-18T12:40:40;-2.10;99.90
6518;DHT22;3292;48.944;9.240;2022-12-18T12:43:21;-2.00;99.90
6518;DHT22;3292;48.944;9.240;2022-12-18T12:45:52;-2.00;99.90
6518;DHT22;3292;48.944;9.240;2022-12-18T12:48:38;-2.00;99.90
6518;DHT22;3292;48.944;9.240;2022-12-18T12:51:12;-1.90;99.90
6518;DHT22;3292;48.944;9.240;2022-12-18T12:53:40;-1.80;99.90
6518;DHT22;3292;48.944;9.240;2022-12-18T12:56:11;-1.80;99.90
6518;DHT22;3292;48.944;9.240;2022-12-18T12:58:50;-1.80;99.90
6518;DHT22;3292;48.944;9.240;2022-12-18T13:01:28;-1.70;99.90
6518;DHT22;3292;48.944;9.240;2022-12-18T13:04:05;-1.80;99.90
6518;DHT22;3292;48.944;9.240;2022-12-18T13:06:40;-1.70;99.90
6518;DHT22;3292;48.944;9.240;2022-12-18T13:09:09;-1.60;99.90
6518;DHT22;3292;48.944;9.240;2022-12-18T13:11:38;-1.60;99.90
6518;DHT22;3292;48.944;9.240;2022-12-18T13:14:29;-1.60;99.90
6518;DHT22;3292;48.944;9.240;2022-12-18T13:17:26;-1.60;99.90
6518;DHT22;3292;48.944;9.240;2022-12-18T13:20:19;-1.60;99.90
6518;DHT22;3292;48.944;9.240;2022-12-18T13:22:47;-1.60;99.90
6518;DHT22;3292;48.944;9.240;2022-12-18T13:25:33;-1.60;99.90
6518;DHT22;3292;48.944;9.240;2022-12-18T13:28:06;-1.70;99.90
6518;DHT22;3292;48.944;9.240;2022-12-18T13:30:50;-1.70;99.90
6518;DHT22;3292;48.944;9.240;2022-12-18T13:33:47;-1.60;99.90
6518;DHT22;3292;48.944;9.240;2022-12-18T13:42:43;-1.60;99.90
6518;DHT22;3292;48.944;9.240;2022-12-18T13:45:42;-1.50;99.90
6518;DHT22;3292;48.944;9.240;2022-12-18T13:48:23;-1.50;99.90
6518;DHT22;3292;48.944;9.240;2022-12-18T13:50:57;-1.50;99.90
6518;DHT22;3292;48.944;9.240;2022-12-18T13:53:27;-1.60;99.90
6518;DHT22;3292;48.944;9.240;2022-12-18T13:55:55;-1.60;99.90
6518;DHT22;3292;48.944;9.240;2022-12-18T13:58:21;-1.70;99.90
6518;DHT22;3292;48.944;9.240;2022-12-18T14:00:48;-1.70;99.90
6518;DHT22;3292;48.944;9.240;2022-12-18T14:03:20;-1.70;99.90
6518;DHT22;3292;48.944;9.240;2022-12-18T14:05:53;-1.70;99.90
6518;DHT22;3292;48.944;9.240;2022-12-18T14:08:21;-1.70;99.90
6518;DHT22;3292;48.944;9.240;2022-12-18T14:10:51;-1.70;99.90
6518;DHT22;3292;48.944;9.240;2022-12-18T14:13:24;-1.70;99.90
6518;DHT22;3292;48.944;9.240;2022-12-18T14:15:54;-1.70;99.90
6518;DHT22;3292;48.944;9.240;2022-12-18T14:18:24;-1.80;99.90
6518;DHT22;3292;48.944;9.240;2022-12-18T14:20:52;-1.70;99.90
6518;DHT22;3292;48.944;9.240;2022-12-18T14:23:29;-1.80;99.90
6518;DHT22;3292;48.944;9.240;2022-12-18T14:25:56;-1.80;99.90
6518;DHT22;3292;48.944;9.240;2022-12-18T14:28:23;-1.80;99.90
6518;DHT22;3292;48.944;9.240;2022-12-18T14:30:51;-1.90;99.90
6518;DHT22;3292;48.944;9.240;2022-12-18T14:33:23;-1.70;99.90
6518;DHT22;3292;48.944;9.240;2022-12-18T14:35:55;-1.80;99.90
6518;DHT22;3292;48.944;9.240;2022-12-18T14:38:28;-1.90;99.90
6518;DHT22;3292;48.944;9.240;2022-12-18T14:40:57;-1.90;99.90
6518;DHT22;3292;48.944;9.240;2022-12-18T14:43:25;-2.00;99.90
6518;DHT22;3292;48.944;9.240;2022-12-18T14:45:52;-1.90;99.90
6518;DHT22;3292;48.944;9.240;2022-12-18T14:48:24;-1.90;99.90
6518;DHT22;3292;48.944;9.240;2022-12-18T14:50:59;-2.00;99.90
6518;DHT22;3292;48.944;9.240;2022-12-18T14:53:36;-2.00;99.90
6518;DHT22;3292;48.944;9.240;2022-12-18T14:56:14;-2.00;99.90
6518;DHT22;3292;48.944;9.240;2022-12-18T14:58:45;-1.90;99.90
6518;DHT22;3292;48.944;9.240;2022-12-18T15:01:19;-2.10;99.90
6518;DHT22;3292;48.944;9.240;2022-12-18T15:03:47;-2.10;99.90
6518;DHT22;3292;48.944;9.240;2022-12-18T15:06:21;-2.20;99.90
6518;DHT22;3292;48.944;9.240;2022-12-18T15:08:50;-2.30;99.90
6518;DHT22;3292;48.944;9.240;2022-12-18T15:11:45;-2.30;99.90
6518;DHT22;3292;48.944;9.240;2022-12-18T15:14:31;-2.40;99.90
6518;DHT22;3292;48.944;9.240;2022-12-18T15:17:01;-2.40;99.90
6518;DHT22;3292;48.944;9.240;2022-12-18T15:19:34;-2.50;99.90
6518;DHT22;3292;48.944;9.240;2022-12-18T15:22:02;-2.60;99.90
6518;DHT22;3292;48.944;9.240;2022-12-18T15:24:31;-2.60;99.90
6518;DHT22;3292;48.944;9.240;2022-12-18T15:26:58;-2.50;99.90
6518;DHT22;3292;48.944;9.240;2022-12-18T15:29:25;-2.60;99.90
6518;DHT22;3292;48.944;9.240;2022-12-18T15:32:01;-2.70;99.90
6518;DHT22;3292;48.944;9.240;2022-12-18T15:34:28;-2.70;99.90
6518;DHT22;3292;48.944;9.240;2022-12-18T15:36:57;-2.70;99.90
6518;DHT22;3292;48.944;9.240;2022-12-18T15:39:24;-2.70;99.90
6518;DHT22;3292;48.944;9.240;2022-12-18T15:41:51;-2.70;99.90
6518;DHT22;3292;48.944;9.240;2022-12-18T15:44:35;-2.70;99.90
6518;DHT22;3292;48.944;9.240;2022-12-18T15:47:03;-2.80;99.90
6518;DHT22;3292;48.944;9.240;2022-12-18T15:49:30;-2.80;99.90
6518;DHT22;3292;48.944;9.240;2022-12-18T15:51:59;-2.90;99.90
6518;DHT22;3292;48.944;9.240;2022-12-18T15:54:28;-2.90;99.90
6518;DHT22;3292;48.944;9.240;2022-12-18T15:57:12;-2.90;99.90
6518;DHT22;3292;48.944;9.240;2022-12-18T15:59:52;-3.00;99.90
6518;DHT22;3292;48.944;9.240;2022-12-18T16:02:20;-3.00;99.90
6518;DHT22;3292;48.944;9.240;2022-12-18T16:04:48;-3.00;99.90
6518;DHT22;3292;48.944;9.240;2022-12-18T16:07:17;-3.00;99.90
6518;DHT22;3292;48.944;9.240;2022-12-18T16:09:44;-3.10;99.90
6518;DHT22;3292;48.944;9.240;2022-12-18T16:12:19;-3.10;99.90
6518;DHT22;3292;48.944;9.240;2022-12-18T16:14:47;-3.10;99.90
6518;DHT22;3292;48.944;9.240;2022-12-18T16:17:15;-3.10;99.90
6518;DHT22;3292;48.944;9.240;2022-12-18T16:19:41;-3.20;99.90
6518;DHT22;3292;48.944;9.240;2022-12-18T16:22:23;-3.20;99.90
6518;DHT22;3292;48.944;9.240;2022-12-18T16:24:51;-3.20;99.90
6518;DHT22;3292;48.944;9.240;2022-12-18T16:27:18;-3.20;99.90
6518;DHT22;3292;48.944;9.240;2022-12-18T16:29:45;-3.20;99.90
6518;DHT22;3292;48.944;9.240;2022-12-18T16:32:15;-3.20;99.90
6518;DHT22;3292;48.944;9.240;2022-12-18T16:34:43;-3.20;99.90
6518;DHT22;3292;48.944;9.240;2022-12-18T16:37:13;-3.20;99.90
6518;DHT22;3292;48.944;9.240;2022-12-18T16:39:42;-3.30;99.90